createdAt,value
2023-03-31T00:00:11.318Z,9.4
2023-03-31T00:02:06.838Z,13.7
2023-03-31T00:04:03.907Z,10.0
2023-03-31T00:06:03.737Z,12.5
2023-03-31T00:08:02.451Z,11.1
2023-03-31T00:10:16.717Z,12.9
2023-03-31T00:12:02.538Z,13.2
2023-03-31T00:14:02.803Z,12.0
2023-03-31T00:16:05.572Z,12.9
2023-03-31T00:18:02.668Z,10.2
2023-03-31T00:20:05.118Z,9.3
2023-03-31T00:22:04.718Z,16.0
2023-03-31T00:24:05.332Z,10.5
2023-03-31T00:26:02.781Z,11.1
2023-03-31T00:28:02.637Z,11.2
2023-03-31T00:30:02.544Z,9.9
2023-03-31T00:32:02.663Z,12.3
2023-03-31T00:34:03.287Z,11.3
2023-03-31T00:36:05.714Z,13.3
2023-03-31T00:38:02.630Z,8.6
2023-03-31T00:40:05.796Z,13.5
2023-03-31T00:42:03.936Z,10.8
2023-03-31T00:44:08.549Z,12.5
2023-03-31T00:46:14.777Z,11.9
2023-03-31T00:48:09.732Z,11.7
2023-03-31T00:50:03.265Z,10.0
2023-03-31T00:52:07.640Z,10.3
2023-03-31T00:54:07.996Z,10.1
2023-03-31T00:56:09.122Z,10.7
2023-03-31T00:58:06.725Z,14.0
2023-03-31T01:00:14.042Z,11.9
2023-03-31T01:02:04.825Z,11.2
2023-03-31T01:04:04.636Z,11.4
2023-03-31T01:06:06.228Z,12.1
2023-03-31T01:08:06.012Z,12.1
2023-03-31T01:10:04.548Z,10.9
2023-03-31T01:12:07.337Z,12.8
2023-03-31T01:14:03.692Z,11.7
2023-03-31T01:16:03.885Z,10.3
2023-03-31T01:18:04.393Z,11.3
2023-03-31T01:20:15.103Z,10.4
2023-03-31T01:22:21.543Z,12.4
2023-03-31T01:24:23.624Z,11.5
2023-03-31T01:26:21.505Z,9.4
2023-03-31T01:28:08.100Z,12.1
2023-03-31T01:30:21.743Z,10.5
2023-03-31T01:32:17.705Z,10.6
2023-03-31T01:34:21.476Z,11.8
2023-03-31T01:36:21.831Z,12.6
2023-03-31T01:38:21.540Z,10.7
2023-03-31T01:40:21.476Z,12.5
2023-03-31T01:42:13.491Z,11.2
2023-03-31T01:44:12.419Z,11.4
2023-03-31T01:46:09.317Z,12.8
2023-03-31T01:48:08.678Z,12.9
2023-03-31T01:50:06.598Z,10.4
2023-03-31T01:52:11.081Z,12.2
2023-03-31T01:54:17.138Z,12.2
2023-03-31T01:56:08.243Z,15.5
2023-03-31T01:58:08.422Z,15.0
2023-03-31T02:00:09.017Z,10.4
2023-03-31T02:02:08.250Z,11.6
2023-03-31T02:04:09.887Z,13.4
2023-03-31T02:06:09.890Z,10.3
2023-03-31T02:08:07.750Z,11.0
2023-03-31T02:10:07.218Z,11.9
2023-03-31T02:12:07.675Z,10.7
2023-03-31T02:14:08.414Z,10.2
2023-03-31T02:16:09.174Z,11.4
2023-03-31T02:18:10.781Z,12.5
2023-03-31T02:20:10.736Z,11.7
2023-03-31T02:22:05.468Z,8.5
2023-03-31T02:24:07.240Z,11.0
2023-03-31T02:26:08.454Z,8.9
2023-03-31T02:28:08.679Z,9.9
2023-03-31T02:30:03.653Z,9.1
2023-03-31T02:32:13.554Z,10.9
2023-03-31T02:34:03.500Z,10.9
2023-03-31T02:36:03.475Z,11.6
2023-03-31T02:38:06.108Z,10.7
2023-03-31T02:40:09.804Z,10.1
2023-03-31T02:42:06.649Z,10.5
2023-03-31T02:44:02.452Z,11.8
2023-03-31T02:46:02.517Z,9.1
2023-03-31T02:48:03.610Z,9.2
2023-03-31T02:50:05.394Z,8.6
2023-03-31T02:52:21.374Z,9.2
2023-03-31T02:54:21.505Z,10.6
2023-03-31T02:56:16.996Z,9.1
2023-03-31T02:58:23.291Z,10.0
2023-03-31T03:00:09.155Z,13.8
2023-03-31T03:02:14.181Z,10.7
2023-03-31T03:04:21.093Z,9.0
2023-03-31T03:06:14.229Z,9.7
2023-03-31T03:08:17.965Z,7.8
2023-03-31T03:10:08.517Z,7.8
2023-03-31T03:12:11.864Z,10.9
2023-03-31T03:14:13.046Z,11.5
2023-03-31T03:16:10.344Z,11.5
2023-03-31T03:18:06.013Z,10.1
2023-03-31T03:20:07.674Z,7.6
2023-03-31T03:22:03.355Z,13.1
2023-03-31T03:24:03.096Z,12.8
2023-03-31T03:26:02.500Z,9.2
2023-03-31T03:28:03.218Z,11.0
2023-03-31T03:30:04.017Z,8.5
2023-03-31T03:32:02.471Z,10.2
2023-03-31T03:34:02.825Z,12.4
2023-03-31T03:36:02.893Z,12.2
2023-03-31T03:38:02.441Z,9.7
2023-03-31T03:40:03.288Z,12.3
2023-03-31T03:42:03.550Z,13.2
2023-03-31T03:44:03.457Z,12.2
2023-03-31T03:46:02.729Z,10.1
2023-03-31T03:48:02.977Z,14.3
2023-03-31T03:50:03.316Z,11.1
2023-03-31T03:52:03.513Z,11.3
2023-03-31T03:54:03.339Z,11.9
2023-03-31T03:56:02.513Z,9.0
2023-03-31T03:58:03.360Z,12.7
2023-03-31T04:00:08.031Z,10.6
2023-03-31T04:02:02.693Z,11.7
2023-03-31T04:04:02.611Z,10.7
2023-03-31T04:06:02.491Z,13.5
2023-03-31T04:08:03.905Z,11.5
2023-03-31T04:10:03.054Z,9.7
2023-03-31T04:12:03.545Z,11.3
2023-03-31T04:14:02.698Z,9.6
2023-03-31T04:16:02.528Z,11.1
2023-03-31T04:18:02.604Z,12.8
2023-03-31T04:20:08.701Z,11.6
2023-03-31T04:22:04.286Z,11.5
2023-03-31T04:24:04.205Z,11.4
2023-03-31T04:26:03.410Z,10.4
2023-03-31T04:28:03.020Z,8.4
2023-03-31T04:30:02.523Z,11.5
2023-03-31T04:32:02.775Z,9.9
2023-03-31T04:34:06.137Z,10.8
2023-03-31T04:36:06.872Z,11.2
2023-03-31T04:38:03.506Z,10.7
2023-03-31T04:40:09.315Z,10.8
2023-03-31T04:42:02.572Z,11.2
2023-03-31T04:44:03.095Z,10.6
2023-03-31T04:46:02.772Z,12.7
2023-03-31T04:48:03.060Z,9.0
2023-03-31T04:50:02.607Z,13.4
2023-03-31T04:52:02.542Z,8.8
2023-03-31T04:54:03.472Z,12.1
2023-03-31T04:56:03.462Z,12.0
2023-03-31T04:58:02.807Z,11.2
2023-03-31T05:00:07.003Z,11.3
2023-03-31T05:02:02.500Z,12.4
2023-03-31T05:04:03.645Z,9.7
2023-03-31T05:06:02.503Z,9.3
2023-03-31T05:08:02.726Z,11.6
2023-03-31T05:10:02.610Z,10.8
2023-03-31T05:12:02.859Z,10.2
2023-03-31T05:14:02.476Z,13.2
2023-03-31T05:16:06.810Z,12.6
2023-03-31T05:18:02.476Z,12.6
2023-03-31T05:20:05.632Z,10.4
2023-03-31T05:22:03.442Z,10.0
2023-03-31T05:24:04.242Z,10.8
2023-03-31T05:26:02.446Z,13.2
2023-03-31T05:28:02.581Z,12.6
2023-03-31T05:30:03.958Z,13.1
2023-03-31T05:32:02.763Z,12.5
2023-03-31T05:34:03.256Z,12.0
2023-03-31T05:36:02.573Z,13.5
2023-03-31T05:38:02.465Z,11.8
2023-03-31T05:40:04.489Z,11.7
2023-03-31T05:42:02.640Z,9.6
2023-03-31T05:44:03.149Z,11.3
2023-03-31T05:46:03.314Z,11.1
2023-03-31T05:48:03.275Z,10.6
2023-03-31T05:50:06.909Z,13.9
2023-03-31T05:52:02.638Z,11.1
2023-03-31T05:54:02.766Z,12.1
2023-03-31T05:56:06.630Z,12.1
2023-03-31T05:58:02.772Z,9.3
2023-03-31T06:00:05.716Z,11.7
2023-03-31T06:02:02.736Z,12.6
2023-03-31T06:04:02.626Z,11.6
2023-03-31T06:06:04.747Z,14.4
2023-03-31T06:08:03.747Z,14.4
2023-03-31T06:10:02.764Z,10.5
2023-03-31T06:12:02.983Z,11.3
2023-03-31T06:14:02.989Z,13.3
2023-03-31T06:16:02.912Z,12.5
2023-03-31T06:18:02.600Z,11.2
2023-03-31T06:20:13.104Z,12.3
2023-03-31T06:22:02.678Z,12.2
2023-03-31T06:24:02.520Z,12.4
2023-03-31T06:26:05.733Z,12.4
2023-03-31T06:28:02.453Z,14.2
2023-03-31T06:30:02.671Z,12.6
2023-03-31T06:32:04.443Z,9.5
2023-03-31T06:34:03.226Z,11.5
2023-03-31T06:36:04.909Z,12.5
2023-03-31T06:38:02.430Z,11.9
2023-03-31T06:40:04.007Z,12.7
2023-03-31T06:42:03.257Z,18.4
2023-03-31T06:44:03.106Z,13.6
2023-03-31T06:46:02.776Z,13.3
2023-03-31T06:48:02.514Z,12.1
2023-03-31T06:50:02.461Z,14.6
2023-03-31T06:52:03.477Z,10.8
2023-03-31T06:54:02.710Z,12.5
2023-03-31T06:56:04.216Z,12.6
2023-03-31T06:58:02.783Z,13.1
2023-03-31T07:00:03.700Z,13.8
2023-03-31T07:02:02.476Z,13.8
2023-03-31T07:04:02.500Z,14.2
2023-03-31T07:06:02.625Z,13.9
2023-03-31T07:08:03.143Z,11.7
2023-03-31T07:10:02.667Z,9.3
2023-03-31T07:12:04.672Z,12.7
2023-03-31T07:14:02.667Z,13.8
2023-03-31T07:16:04.543Z,13.8
2023-03-31T07:18:02.755Z,10.3
2023-03-31T07:20:03.380Z,10.3
2023-03-31T07:22:02.688Z,9.0
2023-03-31T07:24:02.564Z,12.0
2023-03-31T07:26:03.651Z,14.6
2023-03-31T07:28:04.434Z,16.1
2023-03-31T07:30:02.772Z,11.0
2023-03-31T07:32:02.460Z,13.2
2023-03-31T07:34:04.303Z,12.1
2023-03-31T07:36:12.926Z,11.3
2023-03-31T07:38:02.490Z,13.5
2023-03-31T07:40:04.576Z,12.5
2023-03-31T07:42:02.506Z,15.1
2023-03-31T07:44:02.455Z,16.9
2023-03-31T07:46:02.782Z,13.5
2023-03-31T07:48:03.080Z,14.7
2023-03-31T07:50:03.651Z,11.8
2023-03-31T07:52:03.435Z,11.8
2023-03-31T07:54:03.043Z,14.3
2023-03-31T07:56:03.250Z,13.3
2023-03-31T07:58:02.717Z,13.7
2023-03-31T08:00:06.077Z,14.3
2023-03-31T08:02:03.175Z,14.6
2023-03-31T08:04:03.323Z,15.8
2023-03-31T08:06:02.514Z,12.3
2023-03-31T08:08:02.497Z,9.5
2023-03-31T08:10:05.819Z,10.9
2023-03-31T08:12:02.503Z,12.7
2023-03-31T08:14:02.647Z,13.0
2023-03-31T08:16:02.712Z,12.9
2023-03-31T08:18:05.001Z,11.0
2023-03-31T08:20:08.042Z,12.8
2023-03-31T08:22:02.716Z,11.3
2023-03-31T08:24:02.452Z,12.5
2023-03-31T08:26:14.511Z,11.9
2023-03-31T08:28:02.517Z,11.6
2023-03-31T08:30:04.040Z,12.0
2023-03-31T08:32:02.587Z,12.3
2023-03-31T08:34:02.805Z,12.5
2023-03-31T08:36:04.582Z,9.8
2023-03-31T08:38:03.306Z,13.5
2023-03-31T08:40:04.718Z,10.4
2023-03-31T08:42:10.414Z,10.6
2023-03-31T08:44:07.476Z,13.7
2023-03-31T08:46:04.973Z,11.2
2023-03-31T08:48:08.110Z,14.1
2023-03-31T08:50:11.274Z,14.4
2023-03-31T08:52:06.200Z,13.4
2023-03-31T08:54:07.530Z,12.6
2023-03-31T08:56:08.067Z,12.3
2023-03-31T08:58:09.295Z,13.0
2023-03-31T09:00:06.385Z,13.2
2023-03-31T09:02:11.099Z,9.1
2023-03-31T09:04:21.628Z,15.9
2023-03-31T09:06:08.259Z,13.6
2023-03-31T09:08:12.564Z,13.8
2023-03-31T09:10:16.990Z,12.4
2023-03-31T09:12:10.183Z,12.5
2023-03-31T09:14:21.454Z,13.9
2023-03-31T09:16:08.833Z,12.9
2023-03-31T09:18:10.865Z,12.5
2023-03-31T09:20:12.922Z,11.6
2023-03-31T09:22:05.755Z,10.6
2023-03-31T09:24:09.027Z,10.0
2023-03-31T09:26:04.756Z,11.2
2023-03-31T09:28:09.739Z,12.3
2023-03-31T09:30:09.349Z,13.3
2023-03-31T09:32:14.120Z,11.3
2023-03-31T09:34:14.181Z,10.0
2023-03-31T09:36:08.705Z,11.3
2023-03-31T09:38:03.275Z,12.4
2023-03-31T09:40:07.237Z,11.8
2023-03-31T09:42:03.200Z,15.3
2023-03-31T09:44:02.874Z,10.9
2023-03-31T09:46:09.679Z,12.0
2023-03-31T09:48:08.754Z,11.2
2023-03-31T09:50:02.707Z,12.3
2023-03-31T09:52:15.426Z,11.2
2023-03-31T09:54:10.330Z,11.2
2023-03-31T09:56:05.835Z,10.3
2023-03-31T09:58:07.701Z,13.1
2023-03-31T10:00:13.307Z,15.3
2023-03-31T10:02:14.215Z,12.9
2023-03-31T10:04:07.519Z,9.7
2023-03-31T10:06:08.694Z,10.4
2023-03-31T10:08:19.298Z,10.8
2023-03-31T10:10:03.381Z,13.3
2023-03-31T10:12:06.853Z,12.7
2023-03-31T10:14:05.047Z,10.5
2023-03-31T10:16:07.692Z,11.0
2023-03-31T10:18:03.750Z,9.5
2023-03-31T10:20:16.419Z,13.3
2023-03-31T10:22:05.887Z,13.3
2023-03-31T10:24:08.184Z,10.4
2023-03-31T10:26:04.856Z,11.5
2023-03-31T10:28:03.135Z,11.8
2023-03-31T10:30:09.144Z,10.3
2023-03-31T10:32:05.577Z,11.1
2023-03-31T10:34:07.273Z,12.7
2023-03-31T10:36:08.515Z,10.8
2023-03-31T10:38:07.319Z,12.2
2023-03-31T10:40:06.091Z,12.2
2023-03-31T10:42:03.391Z,13.7
2023-03-31T10:44:04.814Z,13.9
2023-03-31T10:46:03.688Z,13.5
2023-03-31T10:48:02.649Z,11.3
2023-03-31T10:50:05.240Z,12.2
2023-03-31T10:52:02.501Z,8.7
2023-03-31T10:54:03.677Z,12.7
2023-03-31T10:56:13.419Z,10.0
2023-03-31T10:58:15.903Z,12.5
2023-03-31T11:00:18.679Z,7.6
2023-03-31T11:02:21.500Z,14.5
2023-03-31T11:04:21.659Z,10.9
2023-03-31T11:06:11.416Z,11.2
2023-03-31T11:08:19.974Z,11.2
2023-03-31T11:10:18.104Z,10.2
2023-03-31T11:12:12.092Z,10.2
2023-03-31T11:14:11.274Z,10.9
2023-03-31T11:16:12.909Z,11.6
2023-03-31T11:18:22.398Z,11.1
2023-03-31T11:20:13.186Z,10.7
2023-03-31T11:22:11.921Z,13.5
2023-03-31T11:24:13.554Z,9.9
2023-03-31T11:26:07.927Z,8.7
2023-03-31T11:28:21.178Z,9.7
2023-03-31T11:30:10.881Z,11.5
2023-03-31T11:32:21.562Z,11.1
2023-03-31T11:34:20.437Z,10.6
2023-03-31T11:36:17.093Z,8.9
2023-03-31T11:38:21.756Z,9.8
2023-03-31T11:40:21.678Z,10.6
2023-03-31T11:42:08.570Z,10.1
2023-03-31T11:44:06.123Z,10.9
2023-03-31T11:46:08.671Z,11.7
2023-03-31T11:48:10.323Z,8.0
2023-03-31T11:50:07.278Z,8.0
2023-03-31T11:52:09.362Z,8.6
2023-03-31T11:54:11.517Z,11.1
2023-03-31T11:56:06.949Z,11.1
2023-03-31T11:58:08.140Z,10.5
2023-03-31T12:00:13.156Z,10.9
2023-03-31T12:02:16.366Z,12.0
2023-03-31T12:04:09.428Z,12.0
2023-03-31T12:06:11.459Z,9.2
2023-03-31T12:08:08.422Z,11.5
2023-03-31T12:10:12.770Z,11.2
2023-03-31T12:12:09.537Z,9.7
2023-03-31T12:14:17.083Z,12.0
2023-03-31T12:16:09.547Z,10.8
2023-03-31T12:18:12.201Z,12.8
2023-03-31T12:20:10.045Z,11.4
2023-03-31T12:22:10.977Z,11.7
2023-03-31T12:24:03.327Z,11.3
2023-03-31T12:26:11.342Z,11.6
2023-03-31T12:28:03.494Z,9.4
2023-03-31T12:30:06.779Z,10.4
2023-03-31T12:32:10.163Z,13.9
2023-03-31T12:34:06.167Z,9.9
2023-03-31T12:36:11.823Z,12.6
2023-03-31T12:38:19.132Z,10.2
2023-03-31T12:40:12.373Z,10.6
2023-03-31T12:42:23.519Z,10.2
2023-03-31T12:44:13.237Z,10.1
2023-03-31T12:46:19.078Z,11.1
2023-03-31T12:48:20.926Z,10.5
2023-03-31T12:50:18.504Z,10.9
2023-03-31T12:52:05.952Z,9.5
2023-03-31T12:54:20.039Z,11.5
2023-03-31T12:56:03.421Z,14.1
2023-03-31T12:58:21.645Z,9.6
2023-03-31T13:00:20.474Z,9.0
2023-03-31T13:02:20.023Z,9.5
2023-03-31T13:04:17.592Z,10.3
2023-03-31T13:06:04.883Z,12.1
2023-03-31T13:08:03.688Z,12.9
2023-03-31T13:10:21.755Z,14.4
2023-03-31T13:12:09.076Z,11.5
2023-03-31T13:14:05.811Z,9.2
2023-03-31T13:16:03.271Z,8.9
2023-03-31T13:18:06.706Z,10.9
2023-03-31T13:20:17.122Z,12.6
2023-03-31T13:22:06.312Z,9.8
2023-03-31T13:24:06.914Z,8.8
2023-03-31T13:26:04.159Z,12.3
2023-03-31T13:28:14.261Z,11.7
2023-03-31T13:30:03.039Z,8.8
2023-03-31T13:32:17.110Z,11.2
2023-03-31T13:34:03.586Z,11.2
2023-03-31T13:36:21.184Z,13.4
2023-03-31T13:38:12.977Z,11.9
2023-03-31T13:40:21.447Z,11.3
2023-03-31T13:42:16.248Z,10.1
2023-03-31T13:44:21.738Z,10.4
2023-03-31T13:46:21.991Z,10.9
2023-03-31T13:48:14.652Z,13.0
2023-03-31T13:50:21.463Z,11.8
2023-03-31T13:52:04.703Z,10.2
2023-03-31T13:54:21.543Z,13.0
2023-03-31T13:56:23.350Z,11.5
2023-03-31T13:58:33.466Z,12.0
2023-03-31T14:00:18.228Z,13.8
2023-03-31T14:02:22.072Z,8.6
2023-03-31T14:04:14.277Z,8.9
2023-03-31T14:06:07.185Z,11.3
2023-03-31T14:08:07.767Z,12.6
2023-03-31T14:10:03.786Z,11.6
2023-03-31T14:12:21.670Z,10.1
2023-03-31T14:14:06.160Z,11.2
2023-03-31T14:16:02.917Z,10.0
2023-03-31T14:18:04.436Z,11.1
2023-03-31T14:20:21.740Z,11.2
2023-03-31T14:22:12.830Z,11.8
2023-03-31T14:24:13.061Z,10.6
2023-03-31T14:26:11.011Z,11.6
2023-03-31T14:28:16.377Z,8.2
2023-03-31T14:30:12.459Z,10.2
2023-03-31T14:32:13.321Z,11.5
2023-03-31T14:34:18.996Z,10.7
2023-03-31T14:36:09.412Z,10.2
2023-03-31T14:38:06.221Z,9.2
2023-03-31T14:40:05.131Z,10.6
2023-03-31T14:42:06.289Z,10.2
2023-03-31T14:44:04.552Z,9.9
2023-03-31T14:46:05.035Z,11.1
2023-03-31T14:48:11.066Z,10.3
2023-03-31T14:50:12.910Z,9.6
2023-03-31T14:52:14.028Z,7.6
2023-03-31T14:54:02.675Z,10.9
2023-03-31T14:56:06.379Z,9.2
2023-03-31T14:58:03.288Z,13.5
2023-03-31T15:00:07.814Z,7.9
2023-03-31T15:02:04.556Z,8.3
2023-03-31T15:04:08.753Z,10.9
2023-03-31T15:06:05.009Z,9.8
2023-03-31T15:08:06.858Z,9.4
2023-03-31T15:10:04.170Z,9.1
2023-03-31T15:12:05.375Z,8.5
2023-03-31T15:14:05.516Z,11.8
2023-03-31T15:16:20.657Z,9.4
2023-03-31T15:18:03.254Z,11.3
2023-03-31T15:20:21.741Z,8.7
2023-03-31T15:22:11.172Z,9.3
2023-03-31T15:24:05.367Z,12.2
2023-03-31T15:26:08.811Z,9.1
2023-03-31T15:28:06.146Z,9.9
2023-03-31T15:30:06.009Z,7.0
2023-03-31T15:32:06.310Z,8.9
2023-03-31T15:34:14.291Z,10.5
2023-03-31T15:36:02.853Z,9.5
2023-03-31T15:38:05.829Z,7.9
2023-03-31T15:40:06.744Z,10.2
2023-03-31T15:42:04.532Z,8.3
2023-03-31T15:44:07.627Z,12.1
2023-03-31T15:46:02.740Z,8.3
2023-03-31T15:48:04.312Z,7.6
2023-03-31T15:50:12.706Z,9.1
2023-03-31T15:52:03.532Z,9.7
2023-03-31T15:54:03.570Z,9.0
2023-03-31T15:56:03.523Z,8.1
2023-03-31T15:58:02.484Z,8.1
2023-03-31T16:00:06.557Z,9.7
2023-03-31T16:02:03.320Z,9.7
2023-03-31T16:04:09.037Z,6.8
2023-03-31T16:06:09.157Z,7.9
2023-03-31T16:08:03.606Z,7.9
2023-03-31T16:10:07.654Z,9.4
2023-03-31T16:12:10.663Z,7.2
2023-03-31T16:14:10.054Z,7.2
2023-03-31T16:16:10.811Z,7.1
2023-03-31T16:18:06.050Z,7.3
2023-03-31T16:20:08.139Z,7.7
2023-03-31T16:22:04.293Z,8.9
2023-03-31T16:24:03.624Z,10.0
2023-03-31T16:26:03.363Z,7.0
2023-03-31T16:28:03.661Z,7.3
2023-03-31T16:30:07.759Z,9.4
2023-03-31T16:32:10.714Z,7.4
2023-03-31T16:34:05.283Z,7.9
2023-03-31T16:36:03.358Z,8.4
2023-03-31T16:38:02.775Z,6.7
2023-03-31T16:40:04.537Z,5.8
2023-03-31T16:42:03.324Z,6.7
2023-03-31T16:44:03.599Z,8.7
2023-03-31T16:46:04.188Z,8.7
2023-03-31T16:48:15.436Z,7.6
2023-03-31T16:50:06.471Z,6.5
2023-03-31T16:52:04.513Z,7.7
2023-03-31T16:54:02.472Z,6.1
2023-03-31T16:56:03.478Z,5.8
2023-03-31T16:58:03.421Z,5.9
2023-03-31T17:00:02.683Z,6.8
2023-03-31T17:02:02.575Z,6.4
2023-03-31T17:04:03.512Z,5.8
2023-03-31T17:06:06.835Z,8.2
2023-03-31T17:08:02.935Z,5.6
2023-03-31T17:10:02.507Z,8.1
2023-03-31T17:12:02.851Z,6.1
2023-03-31T17:14:04.706Z,5.2
2023-03-31T17:16:16.491Z,7.2
2023-03-31T17:18:04.542Z,5.2
2023-03-31T17:20:03.840Z,6.4
2023-03-31T17:22:03.090Z,4.9
2023-03-31T17:24:03.286Z,5.7
2023-03-31T17:26:05.724Z,5.1
2023-03-31T17:28:03.731Z,5.0
2023-03-31T17:32:02.713Z,5.4
2023-03-31T17:34:03.192Z,5.6
2023-03-31T17:36:03.430Z,5.1
2023-03-31T17:38:03.742Z,4.8
2023-03-31T17:40:04.331Z,5.0
2023-03-31T17:42:03.610Z,6.4
2023-03-31T17:44:04.136Z,5.9
2023-03-31T17:46:04.539Z,7.2
2023-03-31T17:48:05.399Z,5.1
2023-03-31T17:50:02.616Z,6.0
2023-03-31T17:52:03.192Z,6.0
2023-03-31T17:54:03.390Z,5.2
2023-03-31T17:56:03.855Z,7.7
2023-03-31T17:58:02.901Z,6.1
2023-03-31T18:00:03.115Z,4.1
2023-03-31T18:02:02.993Z,5.1
2023-03-31T18:04:02.618Z,3.9
2023-03-31T18:06:04.876Z,4.6
2023-03-31T18:08:03.309Z,4.2
2023-03-31T18:10:05.215Z,4.0
2023-03-31T18:12:02.476Z,7.5
2023-03-31T18:14:03.047Z,4.8
2023-03-31T18:16:04.514Z,4.9
2023-03-31T18:18:03.762Z,4.3
2023-03-31T18:20:02.731Z,5.0
2023-03-31T18:22:02.676Z,3.8
2023-03-31T18:24:02.465Z,5.3
2023-03-31T18:26:06.002Z,3.8
2023-03-31T18:28:03.053Z,5.9
2023-03-31T18:30:02.774Z,4.1
2023-03-31T18:32:03.430Z,4.7
2023-03-31T18:34:03.000Z,6.6
2023-03-31T18:36:03.492Z,4.3
2023-03-31T18:38:02.732Z,4.1
2023-03-31T18:40:03.247Z,6.5
2023-03-31T18:42:03.189Z,5.5
2023-03-31T18:44:02.625Z,5.5
2023-03-31T18:46:02.477Z,4.0
2023-03-31T18:48:03.310Z,5.4
2023-03-31T18:50:04.198Z,4.4
2023-03-31T18:52:03.838Z,3.2
2023-03-31T18:54:03.339Z,4.3
2023-03-31T18:56:02.952Z,5.1
2023-03-31T18:58:03.180Z,4.3
2023-03-31T19:00:03.237Z,3.9
2023-03-31T19:02:02.698Z,3.5
2023-03-31T19:04:02.655Z,3.4
2023-03-31T19:06:05.588Z,3.7
2023-03-31T19:08:03.721Z,4.7
2023-03-31T19:10:02.609Z,4.5
2023-03-31T19:12:02.775Z,3.5
2023-03-31T19:14:02.439Z,4.1
2023-03-31T19:16:02.752Z,2.8
2023-03-31T19:18:03.260Z,6.7
2023-03-31T19:20:04.474Z,5.7
2023-03-31T19:22:03.326Z,3.4
2023-03-31T19:24:02.608Z,4.6
2023-03-31T19:26:03.280Z,4.3
2023-03-31T19:28:03.362Z,4.3
2023-03-31T19:30:05.589Z,3.7
2023-03-31T19:32:02.804Z,3.5
2023-03-31T19:34:02.891Z,4.4
2023-03-31T19:36:02.620Z,4.1
2023-03-31T19:38:03.229Z,3.6
2023-03-31T19:40:04.646Z,4.0
2023-03-31T19:42:03.508Z,4.7
2023-03-31T19:44:02.619Z,4.0
2023-03-31T19:46:02.936Z,2.8
2023-03-31T19:48:02.543Z,3.4
2023-03-31T19:50:04.307Z,3.9
2023-03-31T19:52:02.979Z,4.4
2023-03-31T19:54:03.490Z,4.2
2023-03-31T19:56:05.240Z,3.7
2023-03-31T19:58:02.828Z,3.7
2023-03-31T20:00:04.255Z,3.4
2023-03-31T20:02:04.733Z,4.5
2023-03-31T20:04:02.551Z,3.8
2023-03-31T20:06:04.243Z,4.3
2023-03-31T20:08:03.228Z,3.9
2023-03-31T20:10:02.439Z,4.5
2023-03-31T20:12:02.789Z,3.7
2023-03-31T20:14:03.497Z,3.7
2023-03-31T20:16:05.506Z,3.3
2023-03-31T20:18:02.673Z,3.3
2023-03-31T20:20:03.420Z,5.4
2023-03-31T20:22:02.550Z,3.6
2023-03-31T20:24:04.031Z,2.8
2023-03-31T20:26:03.586Z,4.7
2023-03-31T20:28:02.657Z,2.8
2023-03-31T20:30:04.084Z,4.7
2023-03-31T20:32:02.585Z,3.9
2023-03-31T20:34:02.881Z,4.7
2023-03-31T20:36:04.910Z,4.0
2023-03-31T20:38:02.634Z,5.4
2023-03-31T20:40:03.545Z,5.0
2023-03-31T20:42:02.648Z,4.3
2023-03-31T20:44:03.456Z,3.6
2023-03-31T20:46:04.438Z,4.9
2023-03-31T20:48:02.845Z,3.4
2023-03-31T20:50:03.531Z,3.3
2023-03-31T20:52:03.916Z,3.7
2023-03-31T20:54:03.583Z,3.7
2023-03-31T20:56:02.428Z,3.6
2023-03-31T20:58:02.634Z,3.2
2023-03-31T21:00:03.396Z,4.4
2023-03-31T21:02:03.112Z,3.7
2023-03-31T21:04:05.118Z,5.2
2023-03-31T21:06:04.941Z,3.1
2023-03-31T21:08:02.432Z,3.8
2023-03-31T21:10:04.005Z,4.4
2023-03-31T21:12:04.358Z,4.4
2023-03-31T21:14:03.392Z,3.0
2023-03-31T21:16:04.158Z,3.3
2023-03-31T21:18:03.525Z,4.5
2023-03-31T21:20:03.910Z,3.7
2023-03-31T21:22:02.452Z,4.0
2023-03-31T21:24:03.698Z,4.3
2023-03-31T21:26:05.685Z,3.0
2023-03-31T21:28:02.452Z,4.0
2023-03-31T21:30:03.653Z,3.5
2023-03-31T21:32:02.627Z,3.0
2023-03-31T21:34:02.819Z,2.4
2023-03-31T21:36:03.831Z,3.1
2023-03-31T21:38:04.198Z,3.9
2023-03-31T21:40:03.658Z,4.7
2023-03-31T21:42:02.735Z,3.1
2023-03-31T21:44:03.024Z,3.4
2023-03-31T21:46:03.511Z,3.6
2023-03-31T21:48:02.645Z,3.0
2023-03-31T21:50:03.336Z,2.8
2023-03-31T21:52:03.935Z,3.2
2023-03-31T21:54:02.822Z,3.0
2023-03-31T21:56:02.551Z,3.3
2023-03-31T21:58:04.190Z,3.4
2023-03-31T22:00:02.615Z,3.5
2023-03-31T22:02:03.132Z,3.6
2023-03-31T22:04:02.525Z,4.1
2023-03-31T22:06:04.504Z,5.3
2023-03-31T22:08:02.486Z,3.0
2023-03-31T22:10:03.753Z,4.0
2023-03-31T22:12:02.489Z,3.9
2023-03-31T22:14:03.730Z,4.0
2023-03-31T22:16:02.471Z,2.8
2023-03-31T22:18:02.705Z,3.3
2023-03-31T22:20:04.642Z,4.4
2023-03-31T22:22:02.472Z,3.3
2023-03-31T22:24:02.518Z,4.1
2023-03-31T22:26:03.483Z,4.1
2023-03-31T22:28:06.003Z,4.1
2023-03-31T22:30:04.369Z,3.8
2023-03-31T22:32:02.645Z,4.4
2023-03-31T22:34:02.451Z,3.3
2023-03-31T22:36:03.411Z,2.6
2023-03-31T22:38:04.438Z,3.5
2023-03-31T22:40:03.274Z,3.2
2023-03-31T22:42:03.118Z,3.1
2023-03-31T22:44:03.074Z,3.5
2023-03-31T22:46:04.505Z,3.2
2023-03-31T22:48:02.470Z,4.5
2023-03-31T22:50:03.653Z,3.1
2023-03-31T22:52:03.187Z,2.5
2023-03-31T22:54:02.766Z,2.6
2023-03-31T22:56:05.594Z,3.0
2023-03-31T22:58:02.464Z,3.0
2023-03-31T23:00:03.596Z,3.3
2023-03-31T23:02:04.094Z,3.1
2023-03-31T23:04:03.695Z,3.2
2023-03-31T23:06:04.667Z,3.9
2023-03-31T23:08:03.168Z,3.0
2023-03-31T23:10:02.528Z,3.4
2023-03-31T23:12:02.543Z,2.3
2023-03-31T23:14:04.080Z,3.3
2023-03-31T23:16:06.142Z,2.8
2023-03-31T23:18:02.592Z,2.5
2023-03-31T23:20:03.500Z,2.6
2023-03-31T23:22:02.495Z,2.2
2023-03-31T23:24:05.077Z,2.1
2023-03-31T23:26:03.962Z,2.7
2023-03-31T23:28:02.724Z,2.3
2023-03-31T23:30:03.347Z,2.6
2023-03-31T23:32:03.571Z,2.9
2023-03-31T23:34:03.038Z,2.5
2023-03-31T23:36:06.938Z,2.6
2023-03-31T23:38:03.536Z,2.3
2023-03-31T23:40:03.700Z,2.5
2023-03-31T23:42:02.838Z,2.4
2023-03-31T23:44:02.752Z,2.6
2023-03-31T23:46:05.687Z,2.8
2023-03-31T23:48:03.154Z,2.7
2023-03-31T23:50:04.359Z,2.3
2023-03-31T23:52:02.582Z,3.5
2023-03-31T23:54:03.069Z,2.1
2023-03-31T23:56:05.160Z,2.7
2023-03-31T23:58:03.433Z,2.5
